Time;durP1;ratioP1;P1;durP2;ratioP2;P2;SDS_P1;SDS_P2;PMS_P1;PMS_P2;Temp;Humidity;BMP_temperature;BMP_pressure;BME280_temperature;BME280_humidity;BME280_pressure;Samples;Min_cycle;Max_cycle;Signal;HPM_P1;HPM_P2
2021/06/01 00:00:09;;;;;;;;;;;13.70;63.20;;;;;;5045485;28;20036;-72
2021/06/01 00:02:35;;;;;;;4.07;1.80;;;13.70;63.30;;;;;;5046945;28;19939;-72
2021/06/01 00:05:00;;;;;;;;;;;13.70;64.10;;;;;;5049744;28;20037;-72
2021/06/01 00:07:26;;;;;;;4.32;2.00;;;13.70;64.30;;;;;;5048060;28;20083;-72
2021/06/01 00:09:51;;;;;;;;;;;13.70;64.30;;;;;;5048663;28;20389;-72
2021/06/01 00:12:17;;;;;;;6.18;2.50;;;13.60;64.90;;;;;;5049115;28;19905;-72
2021/06/01 00:14:42;;;;;;;;;;;13.60;65.50;;;;;;5047670;28;20467;-72
2021/06/01 00:17:08;;;;;;;3.03;2.40;;;13.50;65.50;;;;;;5055271;28;19944;-72
2021/06/01 00:19:33;;;;;;;;;;;13.50;66.00;;;;;;5048800;28;20056;-72
2021/06/01 00:21:59;;;;;;;3.33;1.63;;;13.50;66.80;;;;;;5049171;28;19915;-72
2021/06/01 00:24:25;;;;;;;;;;;13.40;67.10;;;;;;5049269;28;20032;-72
2021/06/01 00:26:50;;;;;;;4.43;2.22;;;13.40;67.30;;;;;;5048749;28;20355;-72
2021/06/01 00:29:15;;;;;;;;;;;13.40;67.50;;;;;;5046824;28;20174;-72
2021/06/01 00:31:42;;;;;;;3.28;2.10;;;13.30;67.80;;;;;;5048033;28;19916;-72
2021/06/01 00:34:08;;;;;;;2.47;1.95;;;13.30;68.50;;;;;;5048686;28;20028;-72
2021/06/01 00:36:34;;;;;;;;;;;13.20;67.90;;;;;;5048994;28;20021;-72
2021/06/01 00:39:00;;;;;;;1.85;1.52;;;13.20;68.00;;;;;;5048480;28;19935;-72
2021/06/01 00:41:25;;;;;;;;;;;13.20;68.60;;;;;;5048982;28;20082;-72
2021/06/01 00:43:51;;;;;;;6.68;2.80;;;13.20;69.50;;;;;;5048299;28;19993;-72
2021/06/01 00:46:16;;;;;;;;;;;13.10;69.00;;;;;;5045874;28;20487;-72
2021/06/01 00:48:42;;;;;;;2.65;1.67;;;13.10;69.20;;;;;;5051150;28;19996;-72
2021/06/01 00:51:07;;;;;;;3.38;1.92;;;13.10;69.20;;;;;;5052297;28;20049;-72
2021/06/01 00:53:36;;;;;;;4.22;2.45;;;13.00;69.50;;;;;;5051069;28;20544;-72
2021/06/01 00:56:03;;;;;;;3.83;2.28;;;13.00;69.80;;;;;;5052537;28;20025;-72
2021/06/01 00:58:29;;;;;;;16.42;2.72;;;13.00;69.80;;;;;;5049778;28;20029;-72
2021/06/01 01:03:20;;;;;;;4.25;2.45;;;12.90;69.90;;;;;;5051780;28;19916;-72
2021/06/01 01:05:49;;;;;;;;;;;12.90;69.80;;;;;;5051410;28;20040;-72
2021/06/01 01:08:45;;;;;;;5.07;2.00;;;12.90;70.30;;;;;;5049877;28;19917;-72
2021/06/01 01:11:29;;;;;;;4.82;1.98;;;12.90;71.30;;;;;;5052565;28;20024;-72
2021/06/01 01:14:06;;;;;;;4.15;2.13;;;12.80;71.10;;;;;;5050715;28;20567;-72
2021/06/01 01:16:32;;;;;;;5.82;2.65;;;12.80;72.00;;;;;;5050700;28;20446;-72
2021/06/01 01:19:01;;;;;;;3.33;2.08;;;12.70;72.00;;;;;;5050819;28;20033;-72
2021/06/01 01:21:36;;;;;;;3.53;2.22;;;12.70;71.80;;;;;;5050469;28;20440;-72
2021/06/01 01:24:26;;;;;;;4.22;2.17;;;12.70;72.70;;;;;;5050822;28;20087;-72
2021/06/01 01:26:56;;;;;;;3.45;2.28;;;12.60;72.60;;;;;;5051443;28;20029;-72
2021/06/01 01:29:41;;;;;;;4.47;2.42;;;12.60;73.40;;;;;;5050610;28;20151;-72
2021/06/01 01:32:36;;;;;;;3.78;2.92;;;12.50;73.80;;;;;;5049064;28;20154;-72
2021/06/01 01:35:04;;;;;;;3.92;2.22;;;12.40;74.30;;;;;;5051204;28;20028;-72
2021/06/01 01:37:32;;;;;;;5.05;2.05;;;12.40;74.10;;;;;;5051685;28;20029;-72
2021/06/01 01:39:59;;;;;;;4.88;2.13;;;12.30;75.00;;;;;;5051335;28;20174;-72
2021/06/01 01:42:39;;;;;;;3.65;2.67;;;12.30;75.20;;;;;;5051821;28;20504;-72
2021/06/01 01:45:08;;;;;;;7.28;2.75;;;12.30;75.30;;;;;;5050478;28;20033;-72
2021/06/01 01:50:00;;;;;;;;;;;12.20;75.60;;;;;;5049358;28;20025;-72
2021/06/01 01:52:26;;;;;;;3.80;2.20;;;12.20;75.50;;;;;;5050653;28;19915;-72
2021/06/01 01:54:53;;;;;;;;;;;12.10;75.80;;;;;;5051421;28;20021;-72
2021/06/01 01:57:19;;;;;;;5.47;2.35;;;12.10;76.00;;;;;;5049333;28;19920;-72
2021/06/01 01:59:44;;;;;;;;;;;12.10;76.50;;;;;;5049670;28;20032;-72
2021/06/01 02:02:11;;;;;;;6.40;3.92;;;12.00;76.80;;;;;;5050220;28;20437;-72
2021/06/01 02:04:37;;;;;;;7.93;4.47;;;12.00;76.80;;;;;;5049078;28;20087;-72
2021/06/01 02:07:03;;;;;;;9.27;5.18;;;12.00;77.30;;;;;;5050196;28;20116;-72
2021/06/01 02:09:29;;;;;;;;;;;11.90;77.70;;;;;;5050393;28;20451;-72
2021/06/01 02:11:54;;;;;;;12.77;4.43;;;11.90;78.10;;;;;;5051306;28;19909;-72
2021/06/01 02:14:21;;;;;;;;;;;11.90;78.20;;;;;;5050204;28;20025;-72
2021/06/01 02:16:47;;;;;;;5.22;3.95;;;11.80;79.00;;;;;;5050810;28;19978;-72
2021/06/01 02:19:14;;;;;;;;;;;11.80;78.90;;;;;;5050194;28;20017;-72
2021/06/01 02:24:33;;;;;;;8.27;5.35;;;11.80;79.10;;;;;;5048565;28;20359;-72
2021/06/01 02:27:15;;;;;;;6.30;4.28;;;11.70;78.80;;;;;;5050719;28;20078;-72
2021/06/01 02:29:50;;;;;;;6.75;3.38;;;11.70;78.70;;;;;;5048351;28;20116;-72
2021/06/01 02:32:19;;;;;;;3.88;3.10;;;11.70;79.30;;;;;;5051041;28;20361;-72
2021/06/01 02:34:46;;;;;;;5.15;2.88;;;11.70;79.80;;;;;;5050275;28;20020;-72
2021/06/01 02:37:12;;;;;;;7.40;3.67;;;11.70;79.80;;;;;;5050509;28;20104;-72
2021/06/01 02:39:38;;;;;;;;;;;11.60;79.50;;;;;;5048118;28;20128;-72
2021/06/01 02:42:04;;;;;;;5.97;3.10;;;11.60;79.90;;;;;;5049750;28;20339;-72
2021/06/01 02:44:34;;;;;;;6.07;2.97;;;11.60;79.60;;;;;;5049958;28;20039;-72
2021/06/01 02:47:01;;;;;;;6.18;3.30;;;11.50;79.60;;;;;;5050165;28;20060;-72
2021/06/01 02:49:27;;;;;;;3.47;2.53;;;11.50;79.60;;;;;;5049158;28;20033;-72
2021/06/01 02:51:54;;;;;;;7.30;3.13;;;11.50;79.70;;;;;;5050286;28;20439;-72
2021/06/01 02:54:21;;;;;;;7.38;2.92;;;11.50;80.20;;;;;;5048755;28;20029;-72
2021/06/01 02:56:48;;;;;;;5.10;2.60;;;11.50;80.10;;;;;;5048896;28;20017;-72
2021/06/01 02:59:14;;;;;;;4.38;2.80;;;11.40;79.90;;;;;;5048998;28;20029;-72
2021/06/01 03:01:40;;;;;;;5.00;2.13;;;11.40;80.30;;;;;;5050149;28;20454;-72
2021/06/01 03:04:07;;;;;;;;;;;11.40;80.60;;;;;;5050757;28;20025;-72
2021/06/01 03:06:34;;;;;;;6.75;2.83;;;11.30;80.90;;;;;;5050447;28;19905;-72
2021/06/01 03:08:59;;;;;;;7.88;2.72;;;11.30;81.00;;;;;;5048851;28;20555;-72
2021/06/01 03:11:25;;;;;;;;;;;11.30;80.80;;;;;;5048948;28;20112;-72
2021/06/01 03:13:52;;;;;;;5.22;2.70;;;11.30;81.10;;;;;;5049710;28;19952;-72
2021/06/01 03:16:19;;;;;;;6.15;2.83;;;11.30;81.10;;;;;;5049905;28;20124;-72
2021/06/01 03:18:45;;;;;;;3.00;2.33;;;11.30;81.40;;;;;;5049364;28;20029;-72
2021/06/01 03:21:10;;;;;;;;;;;11.30;81.30;;;;;;5049730;28;20025;-72
2021/06/01 03:23:36;;;;;;;5.47;3.05;;;11.30;81.50;;;;;;5049694;28;19905;-72
2021/06/01 03:26:03;;;;;;;;;;;11.30;81.20;;;;;;5049982;28;20040;-72
2021/06/01 03:28:29;;;;;;;4.72;2.80;;;11.30;81.90;;;;;;5046592;28;19913;-72
2021/06/01 03:30:55;;;;;;;5.10;2.92;;;11.30;82.10;;;;;;5049153;28;20513;-72
2021/06/01 03:33:21;;;;;;;;;;;11.40;82.10;;;;;;5050250;28;20032;-72
2021/06/01 03:35:46;;;;;;;8.38;3.08;;;11.40;81.80;;;;;;5049720;28;19916;-72
2021/06/01 03:38:12;;;;;;;;;;;11.40;82.00;;;;;;5047854;28;20044;-72
2021/06/01 03:40:39;;;;;;;3.85;2.78;;;11.30;81.60;;;;;;5049219;28;19904;-72
2021/06/01 03:43:04;;;;;;;3.65;3.05;;;11.40;81.80;;;;;;5048191;28;20037;-72
2021/06/01 03:45:30;;;;;;;;;;;11.60;82.00;;;;;;5048841;28;20158;-72
2021/06/01 03:47:56;;;;;;;4.60;2.65;;;11.70;81.80;;;;;;5045358;28;19913;-72
2021/06/01 03:50:22;;;;;;;;;;;12.00;81.60;;;;;;5048275;28;20025;-72
2021/06/01 03:52:48;;;;;;;5.88;2.30;;;12.30;81.40;;;;;;5047975;28;20369;-72
2021/06/01 03:55:14;;;;;;;4.95;2.55;;;12.60;81.00;;;;;;5049080;28;20017;-72
2021/06/01 03:57:40;;;;;;;3.45;2.83;;;12.90;80.50;;;;;;5048867;28;20034;-72
2021/06/01 04:00:07;;;;;;;;;;;13.20;79.60;;;;;;5048503;28;20039;-72
2021/06/01 04:02:32;;;;;;;6.40;3.30;;;13.40;79.40;;;;;;5049297;28;19916;-72
2021/06/01 04:04:57;;;;;;;;;;;13.60;78.50;;;;;;5063590;28;20416;-72
2021/06/01 04:07:23;;;;;;;4.90;2.70;;;13.90;77.90;;;;;;5047230;28;19908;-72
2021/06/01 04:09:48;;;;;;;;;;;14.10;77.60;;;;;;5048565;28;20040;-72
2021/06/01 04:12:14;;;;;;;8.13;3.25;;;14.40;76.60;;;;;;5047923;28;19916;-72
2021/06/01 04:14:39;;;;;;;;;;;14.70;75.50;;;;;;5048021;28;20025;-72
2021/06/01 04:17:05;;;;;;;5.90;3.17;;;15.00;74.90;;;;;;5048864;28;19908;-72
2021/06/01 04:19:32;;;;;;;;;;;15.40;74.50;;;;;;5047520;28;20055;-72
2021/06/01 04:21:58;;;;;;;5.13;2.88;;;15.80;73.00;;;;;;5048714;28;20011;-72
2021/06/01 04:24:27;;;;;;;;;;;16.20;70.90;;;;;;5045560;28;20559;-72
2021/06/01 04:26:56;;;;;;;9.73;3.58;;;16.60;69.90;;;;;;5047661;28;19913;-73
2021/06/01 04:29:22;;;;;;;7.22;3.53;;;17.10;68.10;;;;;;5040853;28;20064;-73
2021/06/01 04:31:47;;;;;;;5.05;3.33;;;17.50;66.50;;;;;;5045825;28;20024;-72
2021/06/01 04:34:13;;;;;;;7.28;2.97;;;17.80;65.60;;;;;;5042368;28;20025;-72
2021/06/01 04:36:39;;;;;;;;;;;18.10;64.40;;;;;;5041514;28;20546;-70
2021/06/01 04:39:06;;;;;;;5.40;3.30;;;18.30;64.20;;;;;;5046775;28;19912;-70
2021/06/01 04:41:31;;;;;;;5.28;3.80;;;18.80;63.50;;;;;;5048325;28;20021;-69
2021/06/01 04:43:57;;;;;;;10.25;5.72;;;19.50;61.90;;;;;;5048461;28;20025;-68
2021/06/01 04:46:23;;;;;;;9.18;4.88;;;20.10;60.40;;;;;;5045887;28;20057;-69
2021/06/01 04:48:48;;;;;;;6.95;4.47;;;20.60;59.30;;;;;;5044613;28;20047;-70
2021/06/01 04:51:16;;;;;;;10.30;4.85;;;21.00;55.80;;;;;;5041332;28;20021;-73
2021/06/01 04:53:50;;;;;;;9.07;3.35;;;21.10;54.90;;;;;;5047371;28;20013;-73
2021/06/01 04:56:15;;;;;;;4.25;3.08;;;21.00;55.20;;;;;;5047046;28;20051;-73
2021/06/01 04:58:41;;;;;;;8.35;2.95;;;21.10;54.10;;;;;;5045349;28;20148;-73
2021/06/01 05:01:07;;;;;;;15.73;7.38;;;21.20;54.00;;;;;;5044137;28;20447;-73
2021/06/01 05:03:33;;;;;;;12.52;6.38;;;21.50;53.50;;;;;;5044127;28;20380;-73
2021/06/01 05:05:58;;;;;;;6.50;3.58;;;21.70;52.00;;;;;;5047966;28;20029;-72
2021/06/01 05:08:24;;;;;;;11.25;4.47;;;21.90;51.60;;;;;;5043025;28;20138;-73
2021/06/01 05:10:50;;;;;;;9.23;5.65;;;22.00;50.60;;;;;;5046676;28;20032;-73
2021/06/01 05:13:15;;;;;;;6.57;3.90;;;22.30;50.20;;;;;;5043757;28;20037;-71
2021/06/01 05:15:41;;;;;;;7.35;3.92;;;22.50;49.20;;;;;;5042222;28;20029;-71
2021/06/01 05:18:06;;;;;;;7.20;4.15;;;22.70;49.20;;;;;;5047085;28;20017;-71
2021/06/01 05:20:32;;;;;;;6.32;3.00;;;23.00;48.50;;;;;;5062559;28;20031;-71
2021/06/01 05:22:57;;;;;;;9.18;3.33;;;23.20;47.40;;;;;;5045922;28;20021;-71
2021/06/01 05:25:23;;;;;;;11.85;3.88;;;23.30;46.90;;;;;;5045121;28;20021;-71
2021/06/01 05:27:48;;;;;;;5.78;3.65;;;23.40;47.00;;;;;;5046896;28;20028;-71
2021/06/01 05:30:20;;;;;;;7.18;3.95;;;23.50;46.90;;;;;;5047417;28;20447;-71
2021/06/01 05:35:23;;;;;;;14.07;5.20;;;23.20;46.50;;;;;;5050521;28;20060;-72
2021/06/01 05:37:50;;;;;;;14.65;4.32;;;23.10;47.20;;;;;;5051375;28;20021;-71
2021/06/01 05:40:17;;;;;;;10.40;3.97;;;23.00;47.50;;;;;;5048813;28;20032;-71
2021/06/01 05:42:42;;;;;;;7.43;4.10;;;22.80;47.50;;;;;;5051544;28;20456;-71
2021/06/01 05:45:08;;;;;;;6.35;3.95;;;22.50;47.80;;;;;;5050580;28;20060;-71
2021/06/01 05:47:35;;;;;;;5.18;4.22;;;22.20;47.90;;;;;;5049852;28;20045;-71
2021/06/01 05:50:00;;;;;;;8.82;4.15;;;21.90;48.30;;;;;;5050062;28;20107;-71
2021/06/01 05:52:26;;;;;;;10.35;4.47;;;21.70;48.50;;;;;;5051445;28;20448;-71
2021/06/01 05:54:51;;;;;;;9.68;4.25;;;21.60;48.90;;;;;;5049282;28;20479;-71
2021/06/01 05:57:17;;;;;;;5.70;3.70;;;21.60;49.40;;;;;;5050528;28;20032;-71
2021/06/01 05:59:42;;;;;;;10.57;4.68;;;21.60;49.00;;;;;;5044208;28;20053;-73
2021/06/01 06:02:08;;;;;;;6.18;3.33;;;21.50;49.20;;;;;;5046581;28;20040;-73
2021/06/01 06:04:33;;;;;;;6.47;3.38;;;21.30;49.60;;;;;;5047256;28;20029;-73
2021/06/01 06:06:59;;;;;;;4.97;3.53;;;21.10;50.10;;;;;;5041446;28;20025;-73
2021/06/01 06:09:24;;;;;;;7.18;4.13;;;21.10;50.40;;;;;;5038315;28;20507;-75
2021/06/01 06:11:50;;;;;;;12.57;4.47;;;20.90;51.00;;;;;;5047220;28;20212;-75
2021/06/01 06:14:15;;;;;;;4.30;3.78;;;20.70;51.00;;;;;;5046629;28;20139;-75
2021/06/01 06:16:48;;;;;;;7.00;3.83;;;20.60;51.40;;;;;;5046436;28;20043;-75
2021/06/01 06:19:14;;;;;;;7.93;3.92;;;20.60;51.60;;;;;;5048169;28;20476;-74
2021/06/01 06:21:39;;;;;;;7.82;4.43;;;20.60;51.40;;;;;;5042325;28;20036;-73
2021/06/01 06:24:05;;;;;;;6.60;3.92;;;20.60;51.40;;;;;;5045011;28;20021;-74
2021/06/01 06:26:31;;;;;;;5.30;4.80;;;20.70;51.60;;;;;;5044938;28;20068;-74
2021/06/01 06:28:56;;;;;;;8.98;4.38;;;20.70;51.50;;;;;;5044359;28;20037;-75
2021/06/01 06:31:22;;;;;;;7.13;3.95;;;20.80;52.00;;;;;;5047611;28;20021;-75
2021/06/01 06:33:47;;;;;;;12.70;4.65;;;20.90;51.90;;;;;;5046380;28;20036;-75
2021/06/01 06:36:13;;;;;;;11.65;4.25;;;20.90;51.60;;;;;;5049857;28;20057;-74
2021/06/01 06:38:38;;;;;;;14.50;5.45;;;20.90;51.30;;;;;;5046073;28;20056;-74
2021/06/01 06:43:36;;;;;;;11.57;4.72;;;20.80;51.60;;;;;;5046745;28;20098;-76
2021/06/01 06:46:02;;;;;;;10.40;4.38;;;20.70;51.70;;;;;;5048337;28;20040;-73
2021/06/01 06:48:28;;;;;;;6.80;4.15;;;20.70;51.50;;;;;;5044022;28;20090;-75
2021/06/01 06:50:53;;;;;;;8.65;4.22;;;20.70;51.20;;;;;;5048237;28;20033;-75
2021/06/01 06:53:19;;;;;;;6.88;4.05;;;21.00;51.10;;;;;;5047038;28;20368;-75
2021/06/01 06:55:44;;;;;;;14.88;4.38;;;21.20;51.10;;;;;;5047323;28;20025;-75
2021/06/01 06:58:10;;;;;;;13.40;4.22;;;21.30;51.20;;;;;;5045577;28;22117;-75
2021/06/01 07:00:36;;;;;;;9.02;3.70;;;21.50;51.10;;;;;;5045395;28;20031;-76
2021/06/01 07:03:01;;;;;;;19.08;6.93;;;21.40;50.80;;;;;;5048206;28;20025;-76
2021/06/01 07:05:27;;;;;;;7.70;3.75;;;21.30;50.90;;;;;;5042265;28;20028;-69
2021/06/01 07:07:53;;;;;;;8.40;3.50;;;21.40;51.20;;;;;;5048404;28;20025;-69
2021/06/01 07:10:21;;;;;;;5.68;3.17;;;21.50;51.40;;;;;;5048720;28;20078;-76
2021/06/01 07:12:46;;;;;;;10.90;5.65;;;21.70;50.90;;;;;;5047745;28;20025;-76
2021/06/01 07:15:12;;;;;;;19.67;5.97;;;21.80;51.10;;;;;;5045892;28;20025;-76
2021/06/01 07:17:42;;;;;;;36.55;7.68;;;22.00;50.90;;;;;;5047926;28;20017;-74
2021/06/01 07:20:08;;;;;;;23.45;5.35;;;22.20;50.60;;;;;;5044186;28;20083;-73
2021/06/01 07:22:34;;;;;;;114.47;14.43;;;22.20;50.70;;;;;;5048852;28;20032;-73
2021/06/01 07:25:00;;;;;;;32.20;6.03;;;22.30;50.60;;;;;;5047496;28;20028;-73
2021/06/01 07:27:26;;;;;;;8.23;4.13;;;22.20;50.30;;;;;;5048494;28;20059;-75
2021/06/01 07:29:52;;;;;;;5.32;3.90;;;22.20;50.60;;;;;;5046647;28;20496;-74
2021/06/01 07:32:17;;;;;;;8.85;3.38;;;22.20;50.80;;;;;;5045751;28;20492;-75
2021/06/01 07:34:43;;;;;;;12.60;4.53;;;22.40;51.20;;;;;;5046165;28;20031;-74
2021/06/01 07:37:08;;;;;;;16.30;3.85;;;22.60;50.60;;;;;;5047919;28;20309;-75
2021/06/01 07:39:34;;;;;;;40.33;6.13;;;22.90;50.90;;;;;;5044392;28;20036;-75
2021/06/01 07:41:59;;;;;;;7.13;3.08;;;23.10;50.00;;;;;;5045595;28;20094;-77
2021/06/01 07:44:25;;;;;;;5.75;3.45;;;23.20;49.30;;;;;;5046459;28;20037;-76
2021/06/01 07:46:51;;;;;;;7.25;3.63;;;23.40;48.80;;;;;;5047320;28;20036;-75
2021/06/01 07:49:17;;;;;;;8.05;3.63;;;23.40;49.00;;;;;;5045661;28;20484;-77
2021/06/01 07:51:43;;;;;;;3.80;3.03;;;23.30;48.60;;;;;;5044640;28;20029;-77
2021/06/01 07:54:09;;;;;;;4.53;3.33;;;23.10;48.70;;;;;;5045299;28;20017;-77
2021/06/01 07:56:35;;;;;;;5.18;3.42;;;23.10;48.90;;;;;;5043475;28;20085;-74
2021/06/01 07:59:00;;;;;;;5.70;3.30;;;23.10;48.90;;;;;;5042777;28;20048;-75
2021/06/01 08:01:26;;;;;;;9.32;2.92;;;23.00;49.10;;;;;;5046796;28;20044;-76
2021/06/01 08:03:51;;;;;;;4.78;3.20;;;22.90;48.70;;;;;;5046253;28;20033;-76
2021/06/01 08:06:17;;;;;;;4.80;2.88;;;22.70;49.10;;;;;;5046550;28;20029;-75
2021/06/01 08:08:43;;;;;;;8.35;4.35;;;22.70;49.30;;;;;;5044951;28;20055;-75
2021/06/01 08:11:08;;;;;;;3.97;2.50;;;22.70;49.20;;;;;;5044534;28;20404;-74
2021/06/01 08:13:34;;;;;;;10.00;3.60;;;22.50;48.50;;;;;;5046160;28;20028;-74
2021/06/01 08:16:01;;;;;;;7.35;3.97;;;22.40;49.00;;;;;;5047824;28;20021;-75
2021/06/01 08:18:30;;;;;;;5.30;3.22;;;22.30;49.20;;;;;;5047018;28;20025;-76
2021/06/01 08:21:02;;;;;;;3.35;3.00;;;22.10;49.00;;;;;;5045916;28;20021;-77
2021/06/01 08:23:27;;;;;;;5.15;3.05;;;22.00;50.00;;;;;;5046237;28;20017;-76
2021/06/01 08:25:53;;;;;;;3.47;2.78;;;22.00;49.50;;;;;;5047804;28;20035;-76
2021/06/01 08:28:19;;;;;;;7.43;3.83;;;22.00;49.60;;;;;;5043624;28;20056;-76
2021/06/01 08:30:44;;;;;;;27.40;5.55;;;22.10;50.00;;;;;;5062012;28;20017;-76
2021/06/01 08:33:10;;;;;;;7.45;3.63;;;22.40;50.40;;;;;;5044359;28;20028;-76
2021/06/01 08:35:37;;;;;;;24.67;5.28;;;22.50;50.40;;;;;;5041743;28;20021;-75
2021/06/01 08:38:02;;;;;;;9.10;3.97;;;22.80;49.70;;;;;;5045842;28;20029;-74
2021/06/01 08:40:28;;;;;;;4.97;3.20;;;22.90;49.40;;;;;;5045555;28;20036;-73
2021/06/01 08:42:54;;;;;;;3.97;2.67;;;22.80;48.60;;;;;;5042861;28;20029;-74
2021/06/01 08:45:20;;;;;;;3.83;2.45;;;22.70;48.40;;;;;;5046967;28;20040;-74
2021/06/01 08:47:47;;;;;;;5.07;2.67;;;22.60;48.30;;;;;;5045480;28;20036;-75
2021/06/01 08:50:13;;;;;;;6.05;2.55;;;22.70;47.60;;;;;;5044398;28;20558;-74
2021/06/01 08:52:40;;;;;;;3.08;2.40;;;22.70;48.10;;;;;;5046393;28;20028;-74
2021/06/01 08:55:09;;;;;;;2.72;1.95;;;22.70;47.30;;;;;;5045447;28;20075;-74
2021/06/01 08:57:36;;;;;;;18.90;3.63;;;22.80;46.80;;;;;;5046279;28;20052;-73
2021/06/01 09:00:03;;;;;;;3.80;2.38;;;22.80;46.80;;;;;;5043205;28;20525;-74
2021/06/01 09:02:29;;;;;;;8.35;3.78;;;23.00;47.40;;;;;;5046193;28;20082;-74
2021/06/01 09:04:59;;;;;;;6.60;3.80;;;23.00;47.30;;;;;;5046788;28;20033;-74
2021/06/01 09:07:36;;;;;;;5.65;2.45;;;23.10;47.80;;;;;;5046179;28;20060;-74
2021/06/01 09:11:02;;;;;;;4.72;3.00;;;23.10;48.00;;;;;;5050998;28;20469;-74
2021/06/01 09:21:13;;;;;;;4.80;3.30;;;23.00;47.40;;;;;;5050592;28;20082;-69
2021/06/01 09:23:48;;;;;;;3.97;2.42;;;23.10;46.70;;;;;;5050637;28;20104;-69
2021/06/01 09:26:38;;;;;;;5.68;2.40;;;23.20;46.70;;;;;;5050506;28;20022;-70
2021/06/01 09:29:04;;;;;;;7.10;2.95;;;23.30;47.90;;;;;;5066027;28;20041;-70
2021/06/01 09:31:29;;;;;;;4.65;3.05;;;23.60;47.60;;;;;;5050178;28;20068;-68
2021/06/01 09:33:55;;;;;;;5.38;3.10;;;23.90;46.70;;;;;;5046276;28;20079;-70
2021/06/01 09:36:23;;;;;;;118.55;12.80;;;24.10;46.20;;;;;;5051003;28;20017;-69
2021/06/01 09:38:49;;;;;;;5.00;3.08;;;24.30;46.50;;;;;;5048438;28;20033;-69
2021/06/01 09:41:16;;;;;;;4.47;2.72;;;24.20;44.60;;;;;;5049536;28;20138;-69
2021/06/01 09:44:00;;;;;;;6.03;3.45;;;24.20;45.00;;;;;;5049636;28;20063;-70
2021/06/01 09:46:26;;;;;;;3.83;2.92;;;23.90;45.20;;;;;;5048438;28;20025;-68
2021/06/01 09:48:54;;;;;;;3.35;3.05;;;23.80;45.20;;;;;;5046124;28;20081;-68
2021/06/01 09:51:33;;;;;;;4.53;2.75;;;23.80;45.70;;;;;;5047316;28;20504;-68
2021/06/01 09:54:50;;;;;;;5.25;2.80;;;23.90;45.30;;;;;;5050275;28;20025;-70
2021/06/01 09:57:18;;;;;;;5.95;4.07;;;24.10;44.90;;;;;;5047635;28;20047;-68
2021/06/01 10:00:09;;;;;;;5.38;3.80;;;23.90;43.20;;;;;;5047398;28;20035;-68
2021/06/01 10:02:35;;;;;;;9.30;6.10;;;23.80;44.40;;;;;;5042411;28;20037;-69
2021/06/01 10:05:22;;;;;;;3.47;2.63;;;23.80;44.90;;;;;;5049689;28;20400;-69
2021/06/01 10:07:50;;;;;;;6.57;3.38;;;23.70;44.60;;;;;;5048520;28;20068;-68
2021/06/01 10:10:21;;;;;;;4.25;2.88;;;23.90;45.80;;;;;;5039022;28;20025;-70
2021/06/01 10:12:49;;;;;;;42.78;33.75;;;24.30;46.00;;;;;;5045159;28;20476;-70
2021/06/01 10:15:17;;;;;;;14.27;6.82;;;24.70;43.90;;;;;;5046874;28;20029;-68
2021/06/01 10:17:44;;;;;;;12.48;9.27;;;24.70;39.70;;;;;;5047611;28;20384;-69
2021/06/01 10:20:11;;;;;;;9.60;6.22;;;24.40;40.90;;;;;;5045749;28;20036;-68
2021/06/01 10:22:37;;;;;;;6.65;2.90;;;24.30;42.60;;;;;;5049173;28;20029;-68
2021/06/01 10:25:04;;;;;;;5.95;5.28;;;24.20;42.00;;;;;;5049565;28;20056;-68
2021/06/01 10:27:30;;;;;;;4.80;2.78;;;24.10;42.60;;;;;;5047402;28;20032;-69
2021/06/01 10:29:56;;;;;;;3.97;2.47;;;24.00;43.50;;;;;;5048451;28;20452;-70
2021/06/01 10:32:23;;;;;;;3.70;2.75;;;23.80;44.20;;;;;;5047051;28;20053;-69
2021/06/01 10:34:50;;;;;;;4.20;3.35;;;23.80;45.00;;;;;;5045506;28;20025;-69
2021/06/01 10:43:21;;;;;;;4.20;3.80;;;24.10;44.30;;;;;;5049844;28;20725;-69
2021/06/01 10:52:00;;;;;;;7.88;3.42;;;24.70;41.90;;;;;;5000602;28;20091;-70
2021/06/01 10:54:41;;;;;;;6.80;3.40;;;24.70;41.90;;;;;;5045935;28;20033;-70
2021/06/01 10:57:08;;;;;;;7.93;3.25;;;24.70;40.80;;;;;;5046947;28;20388;-69
2021/06/01 10:59:51;;;;;;;3.40;2.88;;;24.50;40.60;;;;;;5042857;28;20040;-69
2021/06/01 11:02:17;;;;;;;4.65;3.33;;;24.60;40.30;;;;;;5047764;28;20033;-70
2021/06/01 11:05:04;;;;;;;7.43;4.85;;;24.70;41.40;;;;;;5048770;28;20049;-71
2021/06/01 11:07:52;;;;;;;6.45;2.92;;;25.00;41.80;;;;;;5043469;28;20029;-71
2021/06/01 11:10:46;;;;;;;12.80;11.48;;;25.00;41.00;;;;;;5048826;28;20377;-68
2021/06/01 11:13:18;;;;;;;4.00;3.60;;;25.00;40.70;;;;;;5046690;28;20034;-68
2021/06/01 11:15:53;;;;;;;3.95;2.55;;;24.90;41.60;;;;;;5049592;28;20131;-68
2021/06/01 11:18:19;;;;;;;24.98;5.38;;;25.40;42.70;;;;;;5046595;28;20062;-70
2021/06/01 11:21:18;;;;;;;20.23;5.00;;;26.00;42.30;;;;;;5047474;28;20124;-69
2021/06/01 11:33:04;;;;;;;5.55;3.40;;;26.70;41.50;;;;;;5044350;28;20604;-70
2021/06/01 11:35:44;;;;;;;8.48;5.07;;;26.80;39.50;;;;;;5048813;28;20036;-70
2021/06/01 11:38:34;;;;;;;7.18;3.83;;;26.40;40.30;;;;;;5045062;28;20415;-71
2021/06/01 11:41:19;;;;;;;6.40;4.75;;;26.10;39.70;;;;;;5044747;28;20021;-72
2021/06/01 11:43:45;;;;;;;8.90;3.63;;;25.50;41.20;;;;;;5047352;28;20021;-76
2021/06/01 11:46:28;;;;;;;13.55;3.95;;;25.30;41.00;;;;;;5046576;28;20024;-76
2021/06/01 11:51:44;;;;;;;6.85;5.53;;;25.70;40.50;;;;;;5047368;28;20385;-77
2021/06/01 11:54:14;;;;;;;7.63;5.07;;;25.60;41.30;;;;;;5046852;28;20106;-78
2021/06/01 12:04:47;;;;;;;5.57;5.07;;;25.50;43.00;;;;;;5045051;28;20063;-76
2021/06/01 12:11:14;;;;;;;9.70;7.82;;;25.50;42.70;;;;;;5047504;28;20040;-76
2021/06/01 12:18:37;;;;;;;7.05;6.35;;;25.50;42.70;;;;;;5045667;28;20094;-79
2021/06/01 12:21:04;;;;;;;5.82;5.32;;;25.30;42.90;;;;;;5046978;28;20024;-78
2021/06/01 12:23:31;;;;;;;7.30;5.75;;;25.20;43.10;;;;;;5045485;28;20035;-78
2021/06/01 12:26:18;;;;;;;5.88;3.95;;;25.30;43.10;;;;;;5047739;28;20067;-78
2021/06/01 12:32:22;;;;;;;11.35;7.95;;;25.40;43.50;;;;;;4986020;28;20105;-79
2021/06/01 12:45:43;;;;;;;4.20;3.40;;;25.90;41.50;;;;;;5051632;28;20082;-71
2021/06/01 13:19:58;;;;;;;11.02;8.73;;;25.10;42.00;;;;;;5047875;28;20056;-75
2021/06/01 13:48:08;;;;;;;7.55;4.07;;;25.50;40.70;;;;;;5047650;28;20075;-73
2021/06/01 13:50:50;;;;;;;10.07;5.55;;;25.60;41.80;;;;;;5043787;28;20408;-74
2021/06/01 13:56:01;;;;;;;8.02;4.43;;;26.20;40.70;;;;;;5047346;28;20566;-73
2021/06/01 14:01:23;;;;;;;4.18;3.38;;;26.30;40.90;;;;;;5049786;28;20025;-73
2021/06/01 14:09:43;;;;;;;9.02;7.43;;;25.90;39.80;;;;;;5043864;28;20127;-76
2021/06/01 14:15:21;;;;;;;23.88;18.60;;;25.80;38.70;;;;;;5049875;28;20164;-75
2021/06/01 14:31:50;;;;;;;4.57;2.85;;;26.70;38.10;;;;;;5048260;28;20515;-83
2021/06/01 14:37:20;;;;;;;6.78;3.28;;;26.20;38.80;;;;;;5043714;28;20036;-76
2021/06/01 15:28:49;;;;;;;31.65;22.75;;;24.50;41.60;;;;;;5048284;28;20055;-77
2021/06/01 15:31:37;;;;;;;17.45;14.43;;;24.70;40.90;;;;;;5049415;28;20025;-78
2021/06/01 15:41:17;;;;;;;8.00;5.57;;;25.20;40.90;;;;;;5048722;28;20472;-78
2021/06/01 15:53:30;;;;;;;7.93;6.57;;;24.90;41.10;;;;;;5048622;28;20025;-77
2021/06/01 16:30:25;;;;;;;6.72;4.90;;;25.20;37.70;;;;;;5048457;28;20036;-78
2021/06/01 17:05:36;;;;;;;25.40;22.23;;;24.60;37.90;;;;;;5046170;28;20106;-78
2021/06/01 17:08:38;;;;;;;42.33;34.97;;;24.50;38.00;;;;;;5046282;28;20025;-78
2021/06/01 17:11:13;;;;;;;26.60;20.88;;;24.40;38.20;;;;;;5047568;28;20065;-75
2021/06/01 17:13:43;;;;;;;11.32;9.98;;;24.30;38.40;;;;;;5045651;28;20033;-74
2021/06/01 17:16:16;;;;;;;8.23;5.85;;;24.20;38.40;;;;;;5045099;28;20021;-75
2021/06/01 17:24:18;;;;;;;20.88;15.13;;;23.90;39.60;;;;;;5041885;28;20519;-76
2021/06/01 17:32:31;;;;;;;11.50;9.18;;;24.00;39.50;;;;;;5049844;28;20098;-75
2021/06/01 17:34:58;;;;;;;15.48;13.05;;;23.90;39.50;;;;;;5048822;28;20035;-76
2021/06/01 17:37:26;;;;;;;40.08;30.73;;;23.90;39.50;;;;;;5048574;28;20031;-75
2021/06/01 17:39:52;;;;;;;32.72;25.35;;;23.90;39.70;;;;;;5047211;28;20033;-75
2021/06/01 17:42:20;;;;;;;9.43;7.97;;;23.90;40.30;;;;;;5048392;28;20040;-80
2021/06/01 17:44:50;;;;;;;26.25;20.52;;;23.80;41.20;;;;;;5045666;28;20017;-81
2021/06/01 17:47:21;;;;;;;22.60;17.92;;;23.70;41.80;;;;;;5049166;28;20078;-79
2021/06/01 17:49:51;;;;;;;36.50;26.58;;;23.60;42.40;;;;;;5048545;28;20025;-83
2021/06/01 17:52:29;;;;;;;20.92;15.73;;;23.50;43.30;;;;;;5047722;28;20571;-84
2021/06/01 17:55:00;;;;;;;12.05;10.10;;;23.40;43.90;;;;;;5048389;28;20037;-84
2021/06/01 17:57:27;;;;;;;8.63;6.10;;;23.20;43.90;;;;;;5049315;28;20025;-84
2021/06/01 17:59:54;;;;;;;6.80;5.38;;;23.20;43.90;;;;;;5048564;28;20463;-84
2021/06/01 18:02:21;;;;;;;10.32;7.57;;;23.20;44.00;;;;;;5046821;28;20064;-84
2021/06/01 18:04:48;;;;;;;31.55;21.13;;;23.30;44.40;;;;;;5046249;28;20061;-84
2021/06/01 18:07:28;;;;;;;27.90;20.67;;;23.30;44.40;;;;;;5049569;28;20025;-88
2021/06/01 18:13:09;;;;;;;37.05;25.58;;;23.20;44.50;;;;;;5048956;28;20021;-82